Time;durP1;ratioP1;P1;durP2;ratioP2;P2;SDS_P1;SDS_P2;PMS_P1;PMS_P2;Temp;Humidity;BMP_temperature;BMP_pressure;BME280_temperature;BME280_humidity;BME280_pressure;Samples;Min_cycle;Max_cycle;Signal;HPM_P1;HPM_P2
2022/02/08 00:01:30;;;;;;;9.77;3.20;;;;;;;2.30;100.00;101454.44;6047833;23;20026;-84
2022/02/08 00:03:57;;;;;;;13.23;4.00;;;;;;;2.42;100.00;101454.72;6020465;23;20022;-84
2022/02/08 00:08:57;;;;;;;14.03;3.87;;;;;;;2.40;100.00;101451.22;6043161;23;20077;-84
2022/02/08 00:11:24;;;;;;;14.40;4.57;;;;;;;2.37;100.00;101448.53;6092288;23;20027;-83
2022/02/08 00:13:54;;;;;;;13.50;5.17;;;;;;;2.42;100.00;101458.22;6066755;23;20034;-85
2022/02/08 00:16:20;;;;;;;11.50;4.10;;;;;;;2.42;100.00;101454.72;6072109;23;20526;-85
2022/02/08 00:18:47;;;;;;;10.93;3.30;;;;;;;2.52;100.00;101452.41;6095824;23;20030;-84
2022/02/08 00:21:14;;;;;;;13.90;4.20;;;;;;;2.45;100.00;101449.63;6049825;23;20061;-83
2022/02/08 00:23:40;;;;;;;11.93;4.07;;;;;;;2.46;100.00;101462.69;6071723;23;20029;-83
2022/02/08 00:26:08;;;;;;;14.03;4.13;;;;;;;2.52;100.00;101460.25;6073671;23;20018;-84
2022/02/08 00:28:37;;;;;;;9.73;3.37;;;;;;;2.52;100.00;101472.38;6072468;23;20026;-84
2022/02/08 00:31:04;;;;;;;12.43;3.90;;;;;;;2.57;100.00;101464.69;6072633;23;20022;-84
2022/02/08 00:33:33;;;;;;;12.17;4.90;;;;;;;2.56;100.00;101476.84;6071575;23;20045;-83
2022/02/08 00:36:00;;;;;;;18.60;4.67;;;;;;;2.56;100.00;101463.78;6073754;23;20018;-83
2022/02/08 00:38:27;;;;;;;14.07;3.80;;;;;;;2.64;100.00;101477.03;6047634;23;20029;-85
2022/02/08 00:40:58;;;;;;;13.87;3.80;;;;;;;2.64;100.00;101479.63;6049677;23;20030;-84
2022/02/08 00:43:30;;;;;;;14.03;5.87;;;;;;;2.74;100.00;101477.28;6072440;23;20049;-83
2022/02/08 00:46:13;;;;;;;16.33;5.80;;;;;;;2.71;100.00;101477.22;6076324;23;20018;-83
2022/02/08 00:48:42;;;;;;;16.43;4.00;;;;;;;2.70;100.00;101482.41;6070680;23;20084;-83
2022/02/08 00:51:10;;;;;;;15.40;5.07;;;;;;;2.70;100.00;101479.81;6050918;23;20026;-85
2022/02/08 00:53:37;;;;;;;12.67;5.00;;;;;;;2.74;100.00;101479.91;6072272;23;20032;-84
2022/02/08 00:56:07;;;;;;;13.00;4.17;;;;;;;2.75;100.00;101478.16;6049372;23;20026;-84
2022/02/08 00:58:34;;;;;;;16.30;3.97;;;;;;;2.69;100.00;101475.41;6048194;23;20504;-84
2022/02/08 01:01:03;;;;;;;11.50;5.43;;;;;;;2.85;100.00;101479.25;6095598;23;20022;-84
2022/02/08 01:03:30;;;;;;;11.60;4.07;;;;;;;2.83;100.00;101481.84;6095452;23;20391;-85
2022/02/08 01:06:07;;;;;;;14.73;4.93;;;;;;;2.82;100.00;101477.47;6050318;23;20033;-84
2022/02/08 01:08:39;;;;;;;13.67;4.43;;;;;;;2.86;100.00;101466.28;6073699;23;20358;-84
2022/02/08 01:11:12;;;;;;;12.93;3.90;;;;;;;2.74;100.00;101463.34;6073961;23;20520;-84
2022/02/08 01:13:41;;;;;;;12.90;3.87;;;;;;;2.85;100.00;101461.00;6047767;23;20029;-86
2022/02/08 01:16:12;;;;;;;11.57;4.70;;;;;;;2.90;100.00;101468.09;6073475;23;20509;-83
2022/02/08 01:18:42;;;;;;;16.03;4.53;;;;;;;2.93;100.00;101467.28;6063931;23;20076;-83
2022/02/08 01:21:09;;;;;;;16.80;5.77;;;;;;;2.87;100.00;101473.25;6047117;23;20030;-82
2022/02/08 01:23:35;;;;;;;19.07;3.77;;;;;;;2.86;100.00;101473.19;6045260;23;20022;-83
2022/02/08 01:26:10;;;;;;;11.00;4.53;;;;;;;2.89;100.00;101460.25;6070448;23;20513;-84
2022/02/08 01:28:54;;;;;;;13.33;4.13;;;;;;;2.97;100.00;101480.44;6022638;23;20073;-83
2022/02/08 01:31:22;;;;;;;14.88;4.22;;;;;;;3.01;100.00;101473.56;6073341;23;20025;-82
2022/02/08 01:38:56;;;;;;;13.60;4.40;;;;;;;2.86;100.00;101467.97;6045348;23;20026;-84
2022/02/08 01:44:21;;;;;;;12.93;3.53;;;;;;;2.94;100.00;101453.38;6069133;23;20255;-85
2022/02/08 01:49:36;;;;;;;;;;;;;;;2.97;100.00;101459.56;6072156;23;20093;-86
2022/02/08 01:52:04;;;;;;;7.70;3.03;;;;;;;3.01;100.00;101450.94;6069925;23;19918;-85
2022/02/08 01:54:32;;;;;;;9.20;3.30;;;;;;;2.98;100.00;101450.00;6092081;23;20026;-85
2022/02/08 01:56:58;;;;;;;16.30;3.73;;;;;;;2.90;100.00;101444.59;6070343;23;20026;-85
2022/02/08 01:59:26;;;;;;;11.70;4.37;;;;;;;2.92;100.00;101455.97;6068513;23;20454;-84
2022/02/08 02:01:53;;;;;;;13.93;3.67;;;;;;;2.79;100.00;101454.81;6046346;23;20022;-84
2022/02/08 02:04:19;;;;;;;10.97;3.70;;;;;;;2.72;100.00;101446.78;6020841;23;20037;-85
2022/02/08 02:06:46;;;;;;;9.33;2.90;;;;;;;2.70;100.00;101451.09;6023066;23;20018;-84
2022/02/08 02:09:13;;;;;;;14.00;3.40;;;;;;;2.65;100.00;101453.59;6068083;23;20050;-85
2022/02/08 02:11:39;;;;;;;8.13;3.40;;;;;;;2.60;100.00;101457.78;6069762;23;20098;-84
2022/02/08 02:14:06;;;;;;;13.13;3.67;;;;;;;2.61;100.00;101446.53;6020531;23;20525;-85
2022/02/08 02:19:02;;;;;;;8.17;3.10;;;;;;;2.57;100.00;101443.81;6073000;23;20026;-86
2022/02/08 02:21:29;;;;;;;12.57;3.33;;;;;;;2.69;100.00;101436.25;6098081;23;20081;-85
2022/02/08 02:23:56;;;;;;;12.47;3.23;;;;;;;2.68;100.00;101438.00;6048464;23;20049;-84
2022/02/08 02:26:23;;;;;;;8.07;2.97;;;;;;;2.67;100.00;101443.19;6074624;23;20029;-86
2022/02/08 02:28:49;;;;;;;9.53;3.60;;;;;;;2.71;100.00;101440.69;6048735;23;20096;-84
2022/02/08 02:31:17;;;;;;;12.83;4.60;;;;;;;2.61;100.00;101453.50;6072940;23;20026;-83
2022/02/08 02:33:44;;;;;;;9.00;3.67;;;;;;;2.65;100.00;101450.09;6072157;23;20080;-84
2022/02/08 02:36:14;;;;;;;10.50;3.63;;;;;;;2.69;100.00;101442.38;6074835;23;20450;-84
2022/02/08 02:38:41;;;;;;;9.07;3.63;;;;;;;2.75;100.00;101445.13;6072416;23;20022;-84
2022/02/08 02:41:07;;;;;;;12.23;3.27;;;;;;;2.73;100.00;101449.44;6049937;23;20409;-83
2022/02/08 02:43:34;;;;;;;8.67;3.70;;;;;;;2.66;100.00;101455.34;6096463;23;20666;-85
2022/02/08 02:46:02;;;;;;;10.67;3.20;;;;;;;2.78;100.00;101440.00;6098345;23;20422;-86
2022/02/08 02:48:29;;;;;;;8.77;3.90;;;;;;;2.82;100.00;101441.81;6097340;23;20080;-85
2022/02/08 02:50:56;;;;;;;12.13;4.30;;;;;;;2.79;100.00;101435.66;6073451;23;20358;-85
2022/02/08 02:53:30;;;;;;;9.17;3.63;;;;;;;2.85;100.00;101434.91;6072569;23;20033;-84
2022/02/08 02:55:57;;;;;;;7.78;3.22;;;;;;;2.87;100.00;101433.22;6074752;23;20022;-85
2022/02/08 02:58:28;;;;;;;9.83;3.30;;;;;;;2.89;100.00;101436.75;6072314;23;20025;-84
2022/02/08 03:17:38;;;;;;;8.17;2.70;;;;;;;2.74;100.00;101443.38;6073675;23;20466;-84
2022/02/08 03:20:05;;;;;;;8.00;2.60;;;;;;;2.74;100.00;101438.16;6045377;23;20032;-83
2022/02/08 03:22:32;;;;;;;12.47;2.70;;;;;;;2.80;100.00;101438.31;6045225;23;20026;-84
2022/02/08 03:24:59;;;;;;;11.63;3.20;;;;;;;2.78;100.00;101439.13;6018596;23;20105;-84
2022/02/08 03:27:25;;;;;;;9.63;3.93;;;;;;;2.75;100.00;101432.06;6021775;23;20486;-83
2022/02/08 03:29:52;;;;;;;6.27;2.17;;;;;;;2.86;100.00;101440.19;6065559;23;20029;-83
2022/02/08 03:32:20;;;;;;;8.03;2.30;;;;;;;2.78;100.00;101424.34;6043397;23;20038;-83
2022/02/08 03:34:47;;;;;;;11.80;3.27;;;;;;;2.81;100.00;101431.34;6067427;23;20026;-84
2022/02/08 03:37:14;;;;;;;9.13;3.47;;;;;;;2.74;100.00;101432.94;6069057;23;20568;-84
2022/02/08 03:39:42;;;;;;;7.83;2.60;;;;;;;2.82;100.00;101427.88;6066459;23;20022;-84
2022/02/08 03:42:17;;;;;;;9.97;3.10;;;;;;;2.74;100.00;101422.50;6045043;23;20374;-82
2022/02/08 03:44:47;;;;;;;10.57;2.83;;;;;;;2.69;100.00;101426.75;6066498;23;20073;-82
2022/02/08 03:47:15;;;;;;;8.47;3.00;;;;;;;2.68;100.00;101424.06;6045337;23;20069;-84
2022/02/08 03:49:41;;;;;;;7.70;2.50;;;;;;;2.71;100.00;101422.44;6067122;23;20033;-82
2022/02/08 03:52:08;;;;;;;10.67;3.27;;;;;;;2.69;100.00;101411.09;6044078;23;20022;-84
2022/02/08 03:54:36;;;;;;;8.40;2.23;;;;;;;2.63;100.00;101416.16;6042469;23;20030;-85
2022/02/08 03:57:06;;;;;;;7.07;3.80;;;;;;;2.66;100.00;101417.94;6045034;23;20072;-85
2022/02/08 03:59:32;;;;;;;6.20;2.23;;;;;;;2.63;100.00;101417.88;6043577;23;20022;-84
2022/02/08 04:07:17;;;;;;;9.57;2.90;;;;;;;2.55;100.00;101412.47;6068863;23;20018;-84
2022/02/08 04:09:50;;;;;;;8.47;2.40;;;;;;;2.51;100.00;101410.63;6022258;23;20022;-83
2022/02/08 04:12:24;;;;;;;9.63;3.43;;;;;;;2.46;100.00;101415.75;6045826;23;20086;-84
2022/02/08 04:15:03;;;;;;;7.32;2.60;;;;;;;2.47;100.00;101417.50;6020873;23;20050;-83
2022/02/08 04:42:01;;;;;;;6.33;2.53;;;;;;;2.63;100.00;101400.50;6074492;23;20032;-83
2022/02/08 04:49:26;;;;;;;7.47;3.60;;;;;;;2.52;100.00;101388.91;6071565;23;20026;-83
2022/02/08 04:51:58;;;;;;;7.30;3.40;;;;;;;2.49;100.00;101387.13;6072825;23;20067;-85
2022/02/08 04:54:42;;;;;;;8.40;3.03;;;;;;;2.51;100.00;101381.94;6072407;23;20025;-84
2022/02/08 04:57:18;;;;;;;5.33;2.73;;;;;;;2.49;100.00;101384.50;6054451;23;20025;-84
2022/02/08 05:26:42;;;;;;;7.83;2.93;;;;;;;2.52;100.00;101368.03;6075272;23;20029;-84
2022/02/08 05:28:08;;;;;;;10.70;3.57;;;;;;;2.46;100.00;101311.41;6099099;23;20088;-84
2022/02/08 05:35:46;;;;;;;7.50;3.70;;;;;;;2.56;100.00;101302.06;6102678;23;20022;-85
2022/02/08 05:44:11;;;;;;;12.87;3.73;;;;;;;2.60;100.00;101289.97;6057240;23;20057;-86
2022/02/08 05:49:09;;;;;;;8.63;3.73;;;;;;;2.67;100.00;101291.88;6097439;23;20085;-85
2022/02/08 05:54:18;;;;;;;12.73;3.73;;;;;;;2.69;100.00;101284.94;6100403;23;20476;-86
2022/02/08 05:56:49;;;;;;;8.53;3.63;;;;;;;2.64;100.00;101290.09;6075513;23;20044;-86
2022/02/08 05:59:15;;;;;;;9.10;3.03;;;;;;;2.66;100.00;101283.16;6097016;23;20029;-87
2022/02/08 06:01:42;;;;;;;17.77;4.80;;;;;;;2.68;100.00;101286.69;6075079;23;20076;-86
2022/02/08 06:04:11;;;;;;;15.10;5.13;;;;;;;2.65;100.00;101283.13;6074817;23;20033;-86
2022/02/08 06:06:37;;;;;;;7.67;2.90;;;;;;;2.63;100.00;101282.22;6051818;23;20026;-86
2022/02/08 06:09:04;;;;;;;8.57;3.20;;;;;;;2.71;100.00;101276.31;6050303;23;20037;-84
2022/02/08 06:11:35;;;;;;;7.83;3.23;;;;;;;2.75;100.00;101272.91;6075567;23;20464;-84
2022/02/08 06:14:03;;;;;;;10.93;4.93;;;;;;;2.72;100.00;101271.97;6074663;23;20029;-85
2022/02/08 06:16:31;;;;;;;8.73;4.27;;;;;;;2.73;100.00;101271.13;6076527;23;20014;-85
2022/02/08 06:18:58;;;;;;;10.33;4.30;;;;;;;2.65;100.00;101270.97;6044731;23;20403;-85
2022/02/08 06:21:24;;;;;;;12.00;4.27;;;;;;;2.68;100.00;101257.97;6021267;23;20027;-85
2022/02/08 06:23:51;;;;;;;11.43;4.70;;;;;;;2.73;100.00;101258.97;6045015;23;20030;-86
2022/02/08 06:26:20;;;;;;;9.53;4.70;;;;;;;2.72;100.00;101258.94;6046242;23;20069;-87
2022/02/08 06:28:53;;;;;;;10.57;4.40;;;;;;;2.70;100.00;101258.91;6045133;23;20022;-85
2022/02/08 06:31:20;;;;;;;8.68;5.00;;;;;;;2.70;100.00;101258.91;6023305;23;20512;-84
2022/02/08 06:33:47;;;;;;;10.17;4.63;;;;;;;2.66;100.00;101269.25;6067245;23;20026;-84
2022/02/08 06:36:13;;;;;;;13.90;4.80;;;;;;;2.68;100.00;101262.31;6044782;23;20077;-84
2022/02/08 06:38:40;;;;;;;12.33;5.27;;;;;;;2.70;100.00;101251.09;6067025;23;20073;-85
2022/02/08 06:41:08;;;;;;;12.73;5.73;;;;;;;2.71;100.00;101263.28;6020693;23;20022;-85
2022/02/08 06:43:35;;;;;;;14.10;4.30;;;;;;;2.70;100.00;101269.34;6021186;23;20037;-85
2022/02/08 06:46:02;;;;;;;15.97;7.03;;;;;;;2.73;100.00;101263.31;6047534;23;20033;-85
2022/02/08 06:48:29;;;;;;;22.57;8.87;;;;;;;2.78;100.00;101266.91;6068154;23;20093;-85
2022/02/08 06:50:57;;;;;;;98.20;62.20;;;;;;;2.83;100.00;101255.69;6022887;23;20022;-86
2022/02/08 06:53:25;;;;;;;25.43;19.90;;;;;;;2.83;100.00;101245.25;6044750;23;20027;-84
2022/02/08 06:55:52;;;;;;;17.73;9.07;;;;;;;2.85;100.00;101247.00;6045044;23;20078;-84
2022/02/08 06:58:20;;;;;;;12.70;6.47;;;;;;;2.84;100.00;101235.69;6068061;23;20026;-85
2022/02/08 07:00:48;;;;;;;13.80;9.07;;;;;;;2.87;100.00;101253.16;6044819;23;20399;-84
2022/02/08 07:03:16;;;;;;;16.50;8.20;;;;;;;2.92;100.00;101243.69;6020623;23;20023;-85
2022/02/08 07:05:43;;;;;;;11.73;6.23;;;;;;;2.87;100.00;101242.72;6044499;23;20026;-87
2022/02/08 07:08:10;;;;;;;13.57;6.83;;;;;;;2.87;100.00;101229.69;6066802;23;20177;-85
2022/02/08 07:10:39;;;;;;;9.73;6.70;;;;;;;2.99;100.00;101228.19;6068459;23;20026;-85
2022/02/08 07:13:08;;;;;;;13.73;6.53;;;;;;;3.05;100.00;101224.81;6020794;23;20042;-84
2022/02/08 07:15:35;;;;;;;16.83;8.27;;;;;;;3.16;100.00;101223.28;6045693;23;20022;-85
2022/02/08 07:18:02;;;;;;;23.80;9.63;;;;;;;3.11;100.00;101219.69;6083053;23;20029;-85
2022/02/08 07:20:32;;;;;;;17.10;8.40;;;;;;;3.16;100.00;101210.22;6073294;23;20026;-84
2022/02/08 07:22:59;;;;;;;20.27;7.03;;;;;;;3.14;100.00;101208.44;6072169;23;20076;-85
2022/02/08 07:25:32;;;;;;;12.73;7.07;;;;;;;3.16;100.00;101217.16;6075500;23;20033;-83
2022/02/08 07:27:58;;;;;;;14.00;7.03;;;;;;;3.16;100.00;101202.38;6072188;23;20049;-84
2022/02/08 07:30:27;;;;;;;11.30;5.73;;;;;;;3.19;100.00;101215.47;6073226;23;20037;-86
2022/02/08 07:32:54;;;;;;;15.87;6.73;;;;;;;3.18;100.00;101220.69;6072275;23;20053;-86
2022/02/08 07:38:06;;;;;;;17.33;6.57;;;;;;;3.29;100.00;101208.72;6096519;23;20346;-88
2022/02/08 07:43:02;;;;;;;16.40;8.27;;;;;;;3.32;100.00;101195.72;6072243;23;20030;-85
2022/02/08 07:45:30;;;;;;;22.43;8.63;;;;;;;3.43;100.00;101203.72;6050445;23;20021;-88
2022/02/08 07:47:56;;;;;;;15.00;7.47;;;;;;;3.46;100.00;101195.97;6096411;23;20018;-85
2022/02/08 07:50:25;;;;;;;18.03;8.30;;;;;;;3.47;100.00;101195.97;6072291;23;20052;-85
2022/02/08 07:52:53;;;;;;;12.43;7.83;;;;;;;3.47;100.00;101205.56;6070991;23;20026;-85
2022/02/08 07:55:21;;;;;;;18.77;9.27;;;;;;;3.47;100.00;101203.81;6050300;23;20057;-84
2022/02/08 07:57:48;;;;;;;19.47;9.83;;;;;;;3.51;100.00;101191.66;6048484;23;20028;-86
2022/02/08 08:00:15;;;;;;;19.90;9.27;;;;;;;3.59;100.00;101195.28;6049290;23;20025;-86
2022/02/08 08:02:43;;;;;;;19.90;10.17;;;;;;;3.59;100.00;101203.13;6073223;23;20357;-86
2022/02/08 08:05:10;;;;;;;19.03;10.77;;;;;;;3.58;100.00;101211.81;6096874;23;20029;-88
2022/02/08 08:07:37;;;;;;;15.23;8.57;;;;;;;3.64;100.00;101214.56;6073844;23;20045;-83
2022/02/08 08:10:06;;;;;;;14.23;8.10;;;;;;;3.63;100.00;101211.06;6097135;23;20122;-84
2022/02/08 08:12:35;;;;;;;18.33;8.20;;;;;;;3.65;100.00;101217.19;6075013;23;20458;-85
2022/02/08 08:15:10;;;;;;;15.20;8.03;;;;;;;3.70;100.00;101211.13;6095208;23;20033;-84
2022/02/08 08:17:53;;;;;;;14.63;8.47;;;;;;;3.71;100.00;101219.03;6099320;23;20081;-86
2022/02/08 08:20:20;;;;;;;16.83;8.47;;;;;;;3.68;100.00;101213.72;6050675;23;20026;-87
2022/02/08 08:22:47;;;;;;;19.13;9.17;;;;;;;3.72;100.00;101212.94;6071569;23;20350;-86
2022/02/08 08:25:14;;;;;;;14.60;7.50;;;;;;;3.75;100.00;101207.75;6072839;23;20036;-86
2022/02/08 08:27:40;;;;;;;13.33;8.00;;;;;;;3.85;100.00;101196.59;6073634;23;20022;-86
2022/02/08 08:30:09;;;;;;;12.80;7.73;;;;;;;3.87;100.00;101194.91;6073156;23;20025;-86
2022/02/08 08:32:39;;;;;;;12.50;8.17;;;;;;;3.84;100.00;101189.59;6075912;23;20089;-85
2022/02/08 08:35:08;;;;;;;20.23;9.60;;;;;;;3.93;100.00;101197.56;6051250;23;20457;-85
2022/02/08 08:37:39;;;;;;;12.20;7.50;;;;;;;4.02;100.00;101202.06;6073841;23;20022;-86
2022/02/08 08:40:17;;;;;;;14.07;7.87;;;;;;;4.01;100.00;101200.31;6050534;23;20450;-86
2022/02/08 08:43:16;;;;;;;12.77;8.70;;;;;;;4.02;100.00;101201.19;6075554;23;20029;-87
2022/02/08 08:48:49;;;;;;;20.20;8.93;;;;;;;4.07;100.00;101202.16;6099432;23;20446;-85
2022/02/08 08:54:00;;;;;;;16.23;8.63;;;;;;;4.13;100.00;101170.88;6075138;23;20056;-85
2022/02/08 08:56:28;;;;;;;15.43;9.70;;;;;;;4.10;100.00;101170.81;6076951;23;20026;-84
2022/02/08 08:58:55;;;;;;;19.97;9.60;;;;;;;4.18;100.00;101166.56;6052017;23;20618;-87
2022/02/08 09:01:22;;;;;;;16.63;9.57;;;;;;;4.21;100.00;101177.97;6051780;23;20124;-85
2022/02/08 09:03:49;;;;;;;20.47;11.50;;;;;;;4.24;100.00;101183.22;6075324;23;20056;-85
2022/02/08 09:06:20;;;;;;;24.10;13.10;;;;;;;4.25;100.00;101176.25;6055047;23;20100;-86
2022/02/08 09:08:47;;;;;;;26.80;12.93;;;;;;;4.30;100.00;101178.94;6075539;23;20018;-85
2022/02/08 09:11:22;;;;;;;23.10;12.47;;;;;;;4.29;100.00;101187.63;6075935;23;20036;-85
2022/02/08 09:13:58;;;;;;;18.87;10.93;;;;;;;4.30;100.00;101181.56;6053969;23;20025;-84
2022/02/08 09:16:32;;;;;;;23.63;12.90;;;;;;;4.32;100.00;101172.88;6056439;23;20765;-84
2022/02/08 09:29:51;;;;;;;18.53;11.50;;;;;;;4.45;100.00;101164.28;6099636;23;20029;-85
2022/02/08 09:32:22;;;;;;;15.40;9.33;;;;;;;4.52;100.00;101162.63;6100695;23;20073;-86
2022/02/08 09:34:48;;;;;;;17.23;9.73;;;;;;;4.53;100.00;101164.38;6076791;23;20077;-85
2022/02/08 09:37:17;;;;;;;17.43;8.73;;;;;;;4.64;100.00;101178.50;6098544;23;20018;-86
2022/02/08 09:39:46;;;;;;;15.80;9.47;;;;;;;4.67;100.00;101175.03;6076272;23;20366;-84
2022/02/08 09:42:14;;;;;;;14.50;8.53;;;;;;;4.65;100.00;101174.16;6054938;23;20437;-85
2022/02/08 09:44:41;;;;;;;15.57;9.47;;;;;;;4.75;100.00;101182.13;6076553;23;20448;-86
2022/02/08 09:47:16;;;;;;;18.10;10.30;;;;;;;4.80;100.00;101180.44;6102511;23;20018;-86
2022/02/08 09:49:52;;;;;;;14.60;9.53;;;;;;;4.86;100.00;101160.41;6098118;23;20045;-86
2022/02/08 09:52:21;;;;;;;17.53;8.97;;;;;;;4.95;100.00;101150.91;6078471;23;20108;-85
2022/02/08 09:54:49;;;;;;;16.50;9.23;;;;;;;4.92;100.00;101163.97;6099114;23;20032;-86
2022/02/08 09:57:16;;;;;;;15.63;9.53;;;;;;;5.04;100.00;101161.50;6102549;23;20025;-86
2022/02/08 09:59:43;;;;;;;16.73;9.57;;;;;;;5.07;100.00;101155.41;6076753;23;20022;-86
2022/02/08 10:02:10;;;;;;;14.87;9.00;;;;;;;5.15;100.00;101150.25;6050919;23;20025;-86
2022/02/08 10:04:37;;;;;;;18.47;11.37;;;;;;;5.20;100.00;101141.53;6069644;23;20022;-84
2022/02/08 10:07:13;;;;;;;59.83;29.97;;;;;;;5.25;100.00;101125.88;6095236;23;20076;-84
2022/02/08 10:09:40;;;;;;;33.43;17.43;;;;;;;5.28;100.00;101131.13;6070228;23;20345;-83
2022/02/08 10:12:08;;;;;;;20.50;11.03;;;;;;;5.31;100.00;101136.44;6074223;23;20021;-86
2022/02/08 10:18:59;;;;;;;18.77;9.70;;;;;;;5.34;100.00;101149.53;6073228;23;20022;-83
2022/02/08 10:21:38;;;;;;;16.77;10.43;;;;;;;5.42;100.00;101153.09;6023370;23;20027;-84
2022/02/08 10:23:52;;;;;;;21.30;13.03;;;;;;;5.50;100.00;101150.53;6043722;23;20027;-84
2022/02/08 10:26:27;;;;;;;17.60;9.93;;;;;;;5.52;100.00;101168.03;6060583;23;20025;-84
2022/02/08 10:29:00;;;;;;;14.77;9.07;;;;;;;5.53;100.00;101137.47;6103355;23;20322;-89
2022/02/08 10:31:58;;;;;;;17.58;9.35;;;;;;;5.52;100.00;101140.94;6074678;23;20686;-85
2022/02/08 10:40:08;;;;;;;17.08;10.07;;;;;;;5.64;100.00;101131.44;5981490;23;19928;-86
2022/02/08 10:42:36;;;;;;;17.27;8.97;;;;;;;5.61;100.00;101136.66;6051794;23;20331;-85
2022/02/08 10:45:15;;;;;;;16.10;9.80;;;;;;;5.61;100.00;101135.78;6095956;23;20030;-86
2022/02/08 10:47:45;;;;;;;20.47;11.73;;;;;;;5.68;100.00;101126.22;6050382;23;20017;-86
2022/02/08 10:50:12;;;;;;;23.23;13.77;;;;;;;5.71;100.00;101128.84;6073272;23;20029;-85
2022/02/08 10:52:42;;;;;;;17.50;11.53;;;;;;;5.74;100.00;101126.25;6072840;23;20025;-85
2022/02/08 10:58:13;;;;;;;17.05;10.38;;;;;;;5.73;100.00;101132.38;6096366;23;20025;-83
2022/02/08 11:00:36;;;;;;;15.27;10.13;;;;;;;5.79;100.00;101127.16;6096946;23;20022;-86
2022/02/08 11:03:07;;;;;;;16.63;10.47;;;;;;;5.77;100.00;101135.00;6096250;23;20030;-84
2022/02/08 11:05:43;;;;;;;16.63;9.27;;;;;;;5.78;100.00;101131.53;6097892;23;20026;-83
2022/02/08 11:24:06;;;;;;;18.27;10.95;;;;;;;5.88;100.00;101124.59;6042989;23;20097;-83
2022/02/08 11:26:41;;;;;;;27.07;11.70;;;;;;;5.82;100.00;101116.72;6000350;23;20030;-83
2022/02/08 11:29:16;;;;;;;20.77;12.50;;;;;;;5.86;100.00;101110.59;6019690;23;20023;-83
2022/02/08 11:31:49;;;;;;;18.77;10.20;;;;;;;5.89;100.00;101110.63;6021058;23;20086;-83
2022/02/08 11:48:50;;;;;;;24.77;13.57;;;;;;;6.00;100.00;101074.88;6040475;23;20029;-83
2022/02/08 12:00:16;;;;;;;18.92;11.43;;;;;;;6.14;100.00;101088.06;6019204;23;20031;-81
2022/02/08 12:03:00;;;;;;;23.00;12.30;;;;;;;6.11;100.00;101082.78;5997781;23;20027;-83
2022/02/08 12:05:42;;;;;;;18.10;10.95;;;;;;;6.13;100.00;101086.28;6002009;23;20023;-81
2022/02/08 12:08:13;;;;;;;23.27;12.07;;;;;;;6.18;100.00;101093.31;6022383;23;20050;-82
2022/02/08 12:10:55;;;;;;;20.27;12.20;;;;;;;6.28;100.00;101091.59;6039330;23;20454;-83
2022/02/08 12:31:20;;;;;;;25.07;14.63;;;;;;;6.44;100.00;101087.28;6019752;23;20042;-82
2022/02/08 12:33:58;;;;;;;;;;;;;;;6.43;100.00;101085.53;6025060;23;20047;-82
2022/02/08 12:51:27;;;;;;;30.70;13.87;;;;;;;6.56;100.00;101091.69;6020740;23;20522;-83
2022/02/08 12:59:06;;;;;;;25.53;14.33;;;;;;;6.67;100.00;101090.88;6014856;23;20018;-82
2022/02/08 13:17:07;;;;;;;22.37;12.83;;;;;;;6.77;100.00;101087.38;6045521;23;20046;-82
2022/02/08 14:03:14;;;;;;;20.20;11.03;;;;;;;7.18;100.00;101109.31;6068654;23;20455;-84
2022/02/08 14:19:02;;;;;;;16.73;8.03;;;;;;;7.24;100.00;101120.72;6042929;23;20030;-86
2022/02/08 14:29:37;;;;;;;9.63;5.50;;;;;;;7.45;100.00;101121.59;6068234;23;20045;-84
2022/02/08 14:48:46;;;;;;;9.17;5.00;;;;;;;7.50;100.00;101130.34;6069966;23;20046;-87
2022/02/08 14:57:52;;;;;;;6.77;4.83;;;;;;;7.59;100.00;101140.88;6072348;23;20108;-85
2022/02/08 15:00:11;;;;;;;5.67;3.07;;;;;;;7.60;100.00;101142.63;6034588;23;20023;-83
2022/02/08 15:08:02;;;;;;;5.00;2.83;;;;;;;7.67;100.00;101146.13;6046716;23;20037;-83
2022/02/08 15:10:42;;;;;;;5.20;3.23;;;;;;;7.66;100.00;101147.00;6044849;23;20033;-85
2022/02/08 15:13:11;;;;;;;9.53;4.47;;;;;;;7.69;100.00;101145.25;6047220;23;20023;-86
2022/02/08 15:16:22;;;;;;;6.63;4.63;;;;;;;7.69;100.00;101139.09;6051160;23;20094;-86
2022/02/08 15:18:49;;;;;;;5.50;3.60;;;;;;;7.77;100.00;101147.88;6023354;23;20019;-86
2022/02/08 15:21:24;;;;;;;7.30;3.60;;;;;;;7.70;100.00;101147.00;6018277;23;20140;-83
2022/02/08 15:23:51;;;;;;;5.70;4.00;;;;;;;7.64;100.00;101160.13;6041377;23;20023;-86
2022/02/08 15:26:18;;;;;;;4.53;3.00;;;;;;;7.72;100.00;101155.75;6042541;23;20022;-85
2022/02/08 15:28:45;;;;;;;6.93;2.63;;;;;;;7.73;100.00;101156.63;6040690;23;20093;-86
2022/02/08 15:31:12;;;;;;;4.17;2.80;;;;;;;7.70;100.00;101154.88;6017757;23;20026;-86
2022/02/08 15:33:39;;;;;;;3.63;2.30;;;;;;;7.70;100.00;101157.50;6044608;23;20476;-86
2022/02/08 15:36:05;;;;;;;3.40;2.80;;;;;;;7.68;100.00;101159.28;6044477;23;20051;-87
2022/02/08 15:38:36;;;;;;;3.63;2.80;;;;;;;7.69;100.00;101165.41;6039997;23;20026;-86
2022/02/08 15:41:03;;;;;;;11.37;7.57;;;;;;;7.68;100.00;101167.16;6043272;23;20656;-86
2022/02/08 15:43:30;;;;;;;4.80;2.97;;;;;;;7.73;100.00;101167.13;6042234;23;20027;-85
2022/02/08 15:46:04;;;;;;;4.77;3.77;;;;;;;7.67;100.00;101170.66;6023365;23;20094;-86
2022/02/08 15:48:33;;;;;;;5.93;4.32;;;;;;;7.71;100.00;101169.78;6045339;23;20050;-86
2022/02/08 15:54:43;;;;;;;5.77;3.83;;;;;;;7.68;100.00;101180.31;6037219;23;20351;-87
2022/02/08 16:07:49;;;;;;;4.77;3.03;;;;;;;7.73;100.00;101193.44;6072537;23;20026;-87
2022/02/08 16:10:25;;;;;;;19.63;11.77;;;;;;;7.71;100.00;101200.47;6041712;23;20023;-87
2022/02/08 16:18:37;;;;;;;1.93;1.60;;;;;;;7.72;100.00;101210.97;6070453;23;20027;-87
2022/02/08 16:21:27;;;;;;;4.17;3.20;;;;;;;7.72;100.00;101218.88;6028140;23;20458;-86
2022/02/08 16:24:03;;;;;;;4.73;3.20;;;;;;;7.72;100.00;101213.59;6042327;23;20031;-86
2022/02/08 16:29:30;;;;;;;4.90;4.40;;;;;;;7.71;100.00;101232.91;6063788;23;20019;-86
2022/02/08 16:32:12;;;;;;;2.50;1.87;;;;;;;7.68;100.00;101232.91;6045415;23;20366;-87
2022/02/08 16:54:51;;;;;;;1.88;1.45;;;;;;;7.75;100.00;101263.59;6068852;23;20033;-84
2022/02/08 16:57:33;;;;;;;3.33;1.50;;;;;;;7.65;100.00;101271.44;6069068;23;20027;-84
2022/02/08 17:00:05;;;;;;;3.17;1.77;;;;;;;7.65;100.00;101277.63;6016617;23;20023;-83
2022/02/08 17:02:40;;;;;;;3.03;1.80;;;;;;;7.66;100.00;101276.75;6025134;23;20630;-83
2022/02/08 17:05:07;;;;;;;2.97;1.83;;;;;;;7.61;100.00;101275.84;6043648;23;20026;-84
2022/02/08 17:07:38;;;;;;;2.90;2.00;;;;;;;7.63;100.00;101282.84;6022780;23;20071;-84
2022/02/08 17:10:08;;;;;;;3.13;2.40;;;;;;;7.75;100.00;101291.66;6022516;23;20106;-83
2022/02/08 17:12:41;;;;;;;5.87;3.93;;;;;;;7.71;100.00;101293.38;6068937;23;20026;-84
2022/02/08 17:45:37;;;;;;;2.47;1.60;;;;;;;7.73;100.00;101327.56;6050096;23;20027;-83
2022/02/08 17:48:03;;;;;;;2.00;1.60;;;;;;;7.61;100.00;101345.09;6048971;23;20099;-83
2022/02/08 17:50:30;;;;;;;2.73;1.60;;;;;;;7.62;100.00;101346.84;6024362;23;20019;-83
2022/02/08 17:52:57;;;;;;;2.13;1.60;;;;;;;7.60;100.00;101342.47;6044196;23;20078;-86
2022/02/08 17:55:24;;;;;;;3.43;2.00;;;;;;;7.63;100.00;101353.84;6071031;23;20033;-84
2022/02/08 17:57:52;;;;;;;2.70;2.17;;;;;;;7.66;100.00;101350.38;6019612;23;20036;-85
2022/02/08 18:00:19;;;;;;;2.37;1.90;;;;;;;7.67;100.00;101340.75;6045132;23;20437;-83
2022/02/08 18:02:47;;;;;;;2.57;1.90;;;;;;;7.63;100.00;101345.09;6019195;23;20027;-83
2022/02/08 18:05:16;;;;;;;2.53;1.80;;;;;;;7.59;100.00;101354.75;6022740;23;20538;-83
2022/02/08 18:07:44;;;;;;;2.57;1.70;;;;;;;7.62;100.00;101354.72;6019881;23;20027;-85
2022/02/08 18:10:12;;;;;;;3.80;1.90;;;;;;;7.60;100.00;101360.88;6041740;23;20058;-87
2022/02/08 18:12:42;;;;;;;3.30;2.20;;;;;;;7.65;100.00;101352.97;6013755;23;20030;-86
2022/02/08 18:15:12;;;;;;;2.87;2.10;;;;;;;7.58;100.00;101354.75;6016922;23;20579;-86